Time;durP1;ratioP1;P1;durP2;ratioP2;P2;SDS_P1;SDS_P2;PMS_P1;PMS_P2;Temp;Humidity;BMP_temperature;BMP_pressure;BME280_temperature;BME280_humidity;BME280_pressure;Samples;Min_cycle;Max_cycle;Signal;HPM_P1;HPM_P2
2023/10/03 00:01:37;;;;;;;26.33;12.50;;;;;;;20.73;70.74;100381.28;5055583;28;20474;-58
2023/10/03 00:04:03;;;;;;;26.80;12.93;;;;;;;20.73;70.26;100381.28;5051215;28;20654;-59
2023/10/03 00:06:29;;;;;;;28.37;14.67;;;;;;;20.72;70.56;100379.66;5059844;28;20456;-59
2023/10/03 00:08:54;;;;;;;25.37;13.03;;;;;;;20.71;70.59;100375.94;5060727;28;20430;-58
2023/10/03 00:11:20;;;;;;;26.50;12.93;;;;;;;20.72;70.70;100373.91;5065148;28;20201;-59
2023/10/03 00:13:47;;;;;;;25.57;11.63;;;;;;;20.70;70.16;100382.91;5060972;28;20210;-59
2023/10/03 00:16:12;;;;;;;32.27;14.70;;;;;;;20.70;70.27;100371.44;5063394;28;20755;-58
2023/10/03 00:18:37;;;;;;;25.73;13.03;;;;;;;20.69;70.57;100372.66;5064324;28;20469;-58
2023/10/03 00:21:03;;;;;;;26.97;13.33;;;;;;;20.70;70.41;100379.19;5066816;28;20348;-58
2023/10/03 00:23:29;;;;;;;27.90;12.33;;;;;;;20.69;70.81;100374.69;5068281;28;20171;-58
2023/10/03 00:25:55;;;;;;;25.77;12.87;;;;;;;20.69;71.09;100368.94;5067904;28;20649;-59
2023/10/03 00:28:21;;;;;;;25.63;13.20;;;;;;;20.66;71.22;100367.69;5069430;28;20412;-59
2023/10/03 00:30:48;;;;;;;25.57;13.47;;;;;;;20.66;70.88;100364.81;5066309;28;20987;-59
2023/10/03 00:33:13;;;;;;;25.23;12.90;;;;;;;20.65;71.35;100363.16;5069386;28;20181;-58
2023/10/03 00:35:42;;;;;;;26.00;12.50;;;;;;;20.64;70.89;100361.53;5069484;28;20414;-59
2023/10/03 00:38:13;;;;;;;25.80;13.00;;;;;;;20.66;71.11;100358.25;5069037;28;20215;-59
2023/10/03 00:40:40;;;;;;;22.30;12.13;;;;;;;20.64;71.32;100361.53;5068319;28;20507;-59
2023/10/03 00:43:07;;;;;;;24.07;12.03;;;;;;;20.65;70.86;100363.16;5069155;28;20412;-58
2023/10/03 00:45:33;;;;;;;27.27;12.40;;;;;;;20.65;71.02;100354.56;5068603;28;20444;-59
2023/10/03 00:47:59;;;;;;;24.97;12.37;;;;;;;20.65;70.79;100360.31;5067960;28;20421;-59
2023/10/03 00:50:28;;;;;;;26.00;11.90;;;;;;;20.64;71.25;100350.06;5068169;28;20205;-59
2023/10/03 00:52:58;;;;;;;31.23;13.97;;;;;;;20.65;71.05;100348.00;5057400;28;20508;-58
2023/10/03 00:55:28;;;;;;;24.27;11.80;;;;;;;20.64;71.42;100337.75;5048400;28;20422;-58
2023/10/03 00:58:06;;;;;;;23.87;12.07;;;;;;;20.64;71.44;100347.19;5048119;28;20418;-59
2023/10/03 01:00:51;;;;;;;24.47;11.43;;;;;;;20.63;71.29;100342.66;5048958;28;20426;-59
2023/10/03 01:03:38;;;;;;;33.53;12.93;;;;;;;20.63;71.56;100338.97;5062563;28;20430;-59
2023/10/03 01:06:09;;;;;;;30.00;12.07;;;;;;;20.63;71.62;100342.66;5049157;28;20438;-59
2023/10/03 01:08:39;;;;;;;29.03;12.30;;;;;;;20.64;71.33;100337.75;5068525;28;20440;-59
2023/10/03 01:11:15;;;;;;;25.10;11.70;;;;;;;20.62;71.45;100341.00;5068998;28;20448;-58
2023/10/03 01:13:40;;;;;;;21.93;10.90;;;;;;;20.62;71.45;100328.72;5068971;28;20544;-59
2023/10/03 01:16:06;;;;;;;27.37;12.30;;;;;;;20.61;71.51;100327.88;5069362;28;20944;-59
2023/10/03 01:18:38;;;;;;;26.33;11.40;;;;;;;20.62;71.90;100318.06;5064827;28;20285;-59
2023/10/03 01:21:05;;;;;;;24.50;12.60;;;;;;;20.61;71.27;100325.00;5059963;28;21017;-59
2023/10/03 01:23:35;;;;;;;23.00;11.30;;;;;;;20.62;71.67;100326.66;5052951;28;20488;-59
2023/10/03 01:26:00;;;;;;;25.80;12.13;;;;;;;20.62;71.72;100328.72;5048979;28;20414;-58
2023/10/03 01:28:26;;;;;;;25.70;12.70;;;;;;;20.61;71.56;100322.16;5060403;28;20442;-59
2023/10/03 01:30:52;;;;;;;22.50;11.07;;;;;;;20.62;71.44;100326.66;5049027;28;20549;-59
2023/10/03 01:33:17;;;;;;;23.67;12.07;;;;;;;20.61;71.91;100322.16;5057125;28;20183;-59
2023/10/03 01:35:42;;;;;;;24.97;12.10;;;;;;;20.62;71.33;100318.06;5068123;28;20176;-58
2023/10/03 01:38:08;;;;;;;24.70;11.60;;;;;;;20.61;71.71;100322.16;5052662;28;20183;-59
2023/10/03 01:40:34;;;;;;;26.43;12.33;;;;;;;20.61;71.57;100310.66;5052084;28;20602;-59
2023/10/03 01:43:00;;;;;;;24.10;12.03;;;;;;;20.60;71.69;100314.75;5064948;28;20270;-59
2023/10/03 01:45:26;;;;;;;21.03;10.40;;;;;;;20.60;71.89;100306.16;5063414;28;20421;-59
2023/10/03 01:47:53;;;;;;;23.97;11.87;;;;;;;20.60;71.90;100297.56;5060225;28;20179;-59
2023/10/03 01:50:19;;;;;;;24.90;12.20;;;;;;;20.59;71.98;100284.44;5058209;28;20432;-59
2023/10/03 01:52:46;;;;;;;22.70;11.13;;;;;;;20.60;71.50;100274.59;5059822;28;20442;-59
2023/10/03 01:55:12;;;;;;;23.43;11.37;;;;;;;20.60;71.56;100279.50;5057956;28;20429;-58
2023/10/03 01:57:41;;;;;;;21.10;11.10;;;;;;;20.59;71.45;100278.69;5063734;28;20477;-58
2023/10/03 02:00:20;;;;;;;28.60;12.00;;;;;;;20.60;71.38;100293.84;5052236;28;20411;-58
2023/10/03 02:02:46;;;;;;;22.43;11.30;;;;;;;20.60;71.84;100285.25;5056914;28;20482;-58
2023/10/03 02:05:12;;;;;;;24.97;12.20;;;;;;;20.59;71.56;100278.69;5072124;28;21237;-58
2023/10/03 02:07:39;;;;;;;21.73;10.63;;;;;;;20.60;71.51;100279.50;5067963;28;20422;-59
2023/10/03 02:10:05;;;;;;;25.13;12.00;;;;;;;20.60;71.79;100285.25;5066092;28;20436;-59
2023/10/03 02:12:30;;;;;;;24.00;11.40;;;;;;;20.60;71.60;100276.63;5052068;28;20502;-58
2023/10/03 02:14:56;;;;;;;21.67;11.17;;;;;;;20.59;71.54;100272.97;5054537;28;20273;-58
2023/10/03 02:17:21;;;;;;;21.13;10.50;;;;;;;20.59;72.05;100281.56;5066807;28;20741;-58
2023/10/03 02:19:48;;;;;;;22.40;11.07;;;;;;;20.60;71.69;100279.50;5063232;28;20223;-58
2023/10/03 02:22:13;;;;;;;19.70;10.53;;;;;;;20.59;71.59;100297.94;5061224;28;20281;-59
2023/10/03 02:24:39;;;;;;;21.40;11.07;;;;;;;20.59;72.01;100289.34;5063782;28;20779;-59
2023/10/03 02:27:09;;;;;;;22.00;11.87;;;;;;;20.59;71.98;100284.44;5058639;28;20179;-59
2023/10/03 02:29:34;;;;;;;21.27;10.63;;;;;;;20.60;71.62;100293.84;5071087;28;20189;-58
2023/10/03 02:32:02;;;;;;;22.10;11.10;;;;;;;20.60;71.80;100290.97;5070823;28;20896;-58
2023/10/03 02:34:28;;;;;;;19.30;9.90;;;;;;;20.59;71.61;100290.19;5069926;28;20257;-59
2023/10/03 02:36:55;;;;;;;22.87;10.67;;;;;;;20.59;71.89;100283.59;5068132;28;20523;-59
2023/10/03 02:39:25;;;;;;;22.13;10.97;;;;;;;20.58;71.39;100282.75;5070022;28;20194;-59
2023/10/03 02:41:51;;;;;;;29.30;11.60;;;;;;;20.58;71.75;100288.50;5061539;28;20531;-59
2023/10/03 02:44:17;;;;;;;21.90;10.53;;;;;;;20.58;72.06;100297.09;5040594;28;20966;-58
2023/10/03 02:46:44;;;;;;;21.00;10.60;;;;;;;20.58;71.66;100282.75;5055440;28;20437;-58
2023/10/03 02:49:10;;;;;;;22.53;10.90;;;;;;;20.58;71.83;100279.09;5057805;28;20198;-59
2023/10/03 02:51:36;;;;;;;21.07;10.20;;;;;;;20.59;71.79;100277.88;5052766;28;20422;-58
2023/10/03 02:54:01;;;;;;;22.93;11.30;;;;;;;20.59;71.88;100289.34;5063829;28;20437;-59
2023/10/03 02:56:27;;;;;;;20.80;10.67;;;;;;;20.58;72.11;100294.22;5051040;28;20207;-58
2023/10/03 02:58:52;;;;;;;23.67;11.77;;;;;;;20.58;71.57;100282.75;5056975;28;20179;-59
2023/10/03 03:01:19;;;;;;;20.53;10.47;;;;;;;20.58;72.10;100277.03;5070911;28;20191;-58
2023/10/03 03:03:45;;;;;;;19.87;10.33;;;;;;;20.57;71.81;100272.50;5071009;28;20179;-58
2023/10/03 03:06:11;;;;;;;21.13;10.97;;;;;;;20.58;71.93;100279.91;5069926;28;20436;-58
2023/10/03 03:08:39;;;;;;;22.00;11.33;;;;;;;20.57;72.02;100269.66;5070727;28;20171;-59
2023/10/03 03:11:05;;;;;;;21.03;10.07;;;;;;;20.57;72.04;100269.66;5065027;28;20432;-58
2023/10/03 03:13:32;;;;;;;24.33;10.13;;;;;;;20.57;71.43;100274.56;5069599;28;21133;-58
2023/10/03 03:16:01;;;;;;;25.30;11.80;;;;;;;20.58;72.13;100259.00;5069621;28;20413;-59
2023/10/03 03:18:40;;;;;;;20.70;11.33;;;;;;;20.57;71.57;100263.91;5068624;28;20477;-59
2023/10/03 03:21:13;;;;;;;23.00;11.50;;;;;;;20.58;72.05;100261.88;5070045;28;20982;-58
2023/10/03 03:23:42;;;;;;;17.43;9.50;;;;;;;20.57;72.22;100263.91;5069945;28;20782;-58
2023/10/03 03:26:17;;;;;;;18.20;10.17;;;;;;;20.56;71.86;100256.53;5068434;28;20441;-58
2023/10/03 03:28:44;;;;;;;21.10;10.07;;;;;;;20.57;72.21;100263.91;5065646;28;20437;-59
2023/10/03 03:31:32;;;;;;;17.50;9.70;;;;;;;20.57;71.66;100263.91;5056866;28;20425;-59
2023/10/03 03:33:57;;;;;;;21.43;10.07;;;;;;;20.56;71.53;100262.28;5049369;28;20430;-59
2023/10/03 03:36:23;;;;;;;21.40;10.60;;;;;;;20.57;71.63;100261.03;5067114;28;20437;-59
2023/10/03 03:38:51;;;;;;;20.43;9.30;;;;;;;20.56;72.00;100265.13;5069261;28;20424;-59
2023/10/03 03:41:17;;;;;;;19.10;9.83;;;;;;;20.57;72.15;100257.38;5055974;28;21172;-59
2023/10/03 03:43:47;;;;;;;20.43;10.17;;;;;;;20.56;71.92;100256.53;5066699;28;20437;-59
2023/10/03 03:46:13;;;;;;;20.93;10.23;;;;;;;20.57;72.00;100257.38;5069457;28;20167;-59
2023/10/03 03:48:39;;;;;;;19.43;9.90;;;;;;;20.56;71.95;100261.44;5066283;28;20761;-59
2023/10/03 03:51:11;;;;;;;18.80;10.30;;;;;;;20.56;71.94;100259.41;5065137;28;20533;-59
2023/10/03 03:53:36;;;;;;;19.30;10.40;;;;;;;20.56;72.27;100255.69;5064848;28;20180;-59
2023/10/03 03:56:07;;;;;;;19.30;9.03;;;;;;;20.56;72.37;100262.28;5057304;28;21037;-59
2023/10/03 03:58:34;;;;;;;21.43;10.53;;;;;;;20.56;71.83;100259.41;5068775;28;20187;-59
2023/10/03 04:01:00;;;;;;;20.17;10.13;;;;;;;20.57;72.06;100268.84;5069812;28;20977;-59
2023/10/03 04:03:29;;;;;;;17.37;9.60;;;;;;;20.56;71.77;100259.41;5057759;28;20426;-59
2023/10/03 04:05:57;;;;;;;19.00;9.70;;;;;;;20.56;71.92;100256.53;5053888;28;20437;-58
2023/10/03 04:08:23;;;;;;;18.27;9.30;;;;;;;20.56;72.31;100261.44;5068839;28;20436;-58
2023/10/03 04:10:49;;;;;;;20.73;10.90;;;;;;;20.56;71.98;100253.66;5052927;28;21239;-58
2023/10/03 04:13:17;;;;;;;18.60;9.93;;;;;;;20.56;72.10;100255.69;5050349;28;20252;-59
2023/10/03 04:15:45;;;;;;;20.27;10.33;;;;;;;20.56;72.12;100247.94;5067699;28;20474;-59
2023/10/03 04:18:10;;;;;;;20.77;10.37;;;;;;;20.55;71.87;100249.16;5049514;28;20973;-58
2023/10/03 04:20:39;;;;;;;17.30;9.53;;;;;;;20.55;71.85;100249.16;5049838;28;20476;-58
2023/10/03 04:23:06;;;;;;;17.97;9.53;;;;;;;20.56;72.33;100253.66;5056221;28;20783;-59
2023/10/03 04:25:33;;;;;;;19.77;10.13;;;;;;;20.55;71.90;100249.16;5067905;28;20904;-59
2023/10/03 04:27:58;;;;;;;18.20;9.50;;;;;;;20.55;72.27;100243.41;5068725;28;20437;-59
2023/10/03 04:30:26;;;;;;;19.40;9.70;;;;;;;20.56;72.01;100244.22;5050738;28;20422;-58
2023/10/03 04:32:52;;;;;;;20.17;10.07;;;;;;;20.55;72.53;100252.03;5061076;28;20250;-59
2023/10/03 04:35:18;;;;;;;16.80;8.30;;;;;;;20.55;72.35;100243.41;5057497;28;20443;-59
2023/10/03 04:37:51;;;;;;;17.90;9.80;;;;;;;20.55;71.86;100252.03;5060619;28;20487;-59
2023/10/03 04:40:21;;;;;;;19.23;9.30;;;;;;;20.56;71.88;100255.69;5048305;28;20179;-58
2023/10/03 04:42:50;;;;;;;17.30;9.70;;;;;;;20.56;71.96;100255.69;5048609;28;20561;-58
2023/10/03 04:45:18;;;;;;;19.40;9.40;;;;;;;20.55;72.29;100257.75;5060256;28;20492;-58
2023/10/03 04:47:45;;;;;;;18.27;9.67;;;;;;;20.55;71.19;100254.88;5049939;28;20936;-59
2023/10/03 04:50:11;;;;;;;18.90;9.80;;;;;;;20.55;72.19;100254.88;5057667;28;20442;-59
2023/10/03 04:52:38;;;;;;;19.50;9.30;;;;;;;20.56;71.71;100258.56;5034827;28;20429;-59
2023/10/03 04:55:03;;;;;;;18.57;9.60;;;;;;;20.55;71.79;100254.06;5052400;28;20437;-59
2023/10/03 04:57:29;;;;;;;18.63;9.30;;;;;;;20.55;71.82;100262.66;5068466;28;20469;-59
2023/10/03 04:59:59;;;;;;;17.30;8.63;;;;;;;20.56;72.03;100272.91;5065659;28;20544;-59
2023/10/03 05:02:24;;;;;;;14.30;8.43;;;;;;;20.55;71.96;100268.38;5050629;28;20208;-59
2023/10/03 05:04:50;;;;;;;16.67;9.00;;;;;;;20.54;72.11;100261.84;5049115;28;21196;-58
2023/10/03 05:07:15;;;;;;;16.30;8.83;;;;;;;20.55;72.25;100272.09;5063146;28;20186;-59
2023/10/03 05:09:41;;;;;;;16.43;9.00;;;;;;;20.54;72.29;100267.59;5058790;28;20179;-59
2023/10/03 05:12:06;;;;;;;20.97;10.70;;;;;;;20.53;72.20;100274.53;5056743;28;20171;-58
2023/10/03 05:14:34;;;;;;;16.90;8.77;;;;;;;20.54;72.23;100264.72;5058677;28;20229;-58
2023/10/03 05:17:01;;;;;;;16.43;8.03;;;;;;;20.55;71.24;100266.38;5068182;28;20206;-59
2023/10/03 05:19:27;;;;;;;14.90;8.73;;;;;;;20.54;72.15;100267.59;5052827;28;20473;-58
2023/10/03 05:21:52;;;;;;;16.30;8.70;;;;;;;20.53;72.03;100280.25;5053237;28;20492;-59
2023/10/03 05:24:19;;;;;;;15.80;8.90;;;;;;;20.54;71.92;100267.59;5068578;28;20235;-59
2023/10/03 05:26:44;;;;;;;17.77;9.23;;;;;;;20.54;72.24;100275.34;5071777;28;20424;-59
2023/10/03 05:29:10;;;;;;;16.50;8.73;;;;;;;20.55;71.90;100277.00;5066669;28;20790;-59
2023/10/03 05:31:40;;;;;;;14.60;7.87;;;;;;;20.54;71.63;100281.94;5051649;28;20554;-59
2023/10/03 05:34:10;;;;;;;19.60;8.50;;;;;;;20.54;72.03;100281.09;5051759;28;20179;-59
2023/10/03 05:36:35;;;;;;;14.90;8.03;;;;;;;20.54;72.00;100286.81;5071298;28;21345;-59
2023/10/03 05:39:01;;;;;;;15.87;8.80;;;;;;;20.54;71.96;100281.09;5069829;28;20429;-59
2023/10/03 05:41:27;;;;;;;17.37;8.57;;;;;;;20.54;72.11;100289.69;5062898;28;20195;-58
2023/10/03 05:43:52;;;;;;;17.47;9.00;;;;;;;20.54;72.28;100283.97;5055525;28;20872;-59
2023/10/03 05:46:18;;;;;;;16.43;8.63;;;;;;;20.54;71.89;100286.81;5068048;28;20292;-59
2023/10/03 05:48:43;;;;;;;18.53;9.50;;;;;;;20.55;72.13;100294.22;5053855;28;20772;-59
2023/10/03 05:51:09;;;;;;;19.07;9.23;;;;;;;20.54;72.07;100290.53;5060602;28;20179;-58
2023/10/03 05:53:35;;;;;;;16.60;8.20;;;;;;;20.54;71.75;100293.41;5052535;28;20184;-58
2023/10/03 05:56:06;;;;;;;16.27;8.53;;;;;;;20.54;71.95;100287.66;5068358;28;20190;-59
2023/10/03 05:58:32;;;;;;;15.47;8.27;;;;;;;20.54;72.12;100295.44;5070566;28;20186;-58
2023/10/03 06:00:58;;;;;;;16.37;8.97;;;;;;;20.54;71.78;100290.53;5066552;28;21128;-59
2023/10/03 06:03:24;;;;;;;17.53;9.40;;;;;;;20.53;71.99;100297.47;5070644;28;20448;-58
2023/10/03 06:05:50;;;;;;;15.80;8.77;;;;;;;20.55;72.16;100299.94;5059645;28;20414;-59
2023/10/03 06:08:16;;;;;;;14.73;7.93;;;;;;;20.55;71.91;100297.06;5053207;28;20213;-59
2023/10/03 06:10:42;;;;;;;15.63;8.00;;;;;;;20.53;72.04;100290.94;5053712;28;20433;-58
2023/10/03 06:13:10;;;;;;;16.13;8.60;;;;;;;20.55;72.22;100302.81;5072035;28;20210;-58
2023/10/03 06:15:36;;;;;;;14.20;7.80;;;;;;;20.54;71.91;100298.31;5067266;28;20738;-59
2023/10/03 06:18:02;;;;;;;14.80;8.00;;;;;;;20.53;72.10;100297.47;5063402;28;20472;-59
2023/10/03 06:20:28;;;;;;;15.50;8.40;;;;;;;20.53;72.13;100308.94;5070379;28;20424;-58
2023/10/03 06:22:54;;;;;;;15.40;8.13;;;;;;;20.54;72.22;100299.13;5058708;28;20846;-58
2023/10/03 06:25:19;;;;;;;19.77;8.43;;;;;;;20.53;72.28;100303.19;5051331;28;20202;-59
2023/10/03 06:27:45;;;;;;;16.43;8.83;;;;;;;20.54;71.96;100307.75;5048651;28;20803;-59
2023/10/03 06:30:11;;;;;;;14.03;7.77;;;;;;;20.54;72.22;100310.63;5050509;28;20179;-59
2023/10/03 06:32:37;;;;;;;15.37;8.93;;;;;;;20.53;71.81;100314.69;5066517;28;20239;-58
2023/10/03 06:35:05;;;;;;;15.00;8.20;;;;;;;20.53;72.21;100308.94;5057898;28;20197;-59
2023/10/03 06:37:31;;;;;;;16.40;9.10;;;;;;;20.53;71.71;100314.69;5068983;28;20179;-58
2023/10/03 06:39:57;;;;;;;13.03;6.87;;;;;;;20.53;71.72;100314.69;5069596;28;20547;-58
2023/10/03 06:42:23;;;;;;;17.20;8.10;;;;;;;20.53;72.10;100317.53;5070988;28;20482;-58
2023/10/03 06:44:49;;;;;;;13.73;7.67;;;;;;;20.54;71.93;100315.50;5070427;28;20545;-57
2023/10/03 06:47:14;;;;;;;14.87;7.60;;;;;;;20.52;72.08;100318.75;5063659;28;20478;-58
2023/10/03 06:49:40;;;;;;;14.77;7.50;;;;;;;20.53;71.87;100319.59;5061494;28;20248;-58
2023/10/03 06:52:05;;;;;;;15.70;8.90;;;;;;;20.54;72.01;100310.63;5069636;28;20910;-58
2023/10/03 06:54:31;;;;;;;13.20;7.70;;;;;;;20.53;72.14;100317.53;5062967;28;20194;-58
2023/10/03 06:56:57;;;;;;;15.13;7.83;;;;;;;20.53;72.00;100314.69;5060728;28;20187;-58
2023/10/03 06:59:22;;;;;;;12.80;7.53;;;;;;;20.54;72.16;100318.38;5061764;28;20175;-58
2023/10/03 07:01:48;;;;;;;13.70;7.73;;;;;;;20.54;72.10;100322.09;5062196;28;20281;-58
2023/10/03 07:04:14;;;;;;;14.17;7.90;;;;;;;20.54;72.12;100326.97;5057868;28;20643;-58
2023/10/03 07:06:39;;;;;;;16.40;9.20;;;;;;;20.54;72.13;100321.25;5067878;28;20233;-58
2023/10/03 07:09:08;;;;;;;15.27;7.73;;;;;;;20.54;72.21;100329.84;5060736;28;20598;-58
2023/10/03 07:11:34;;;;;;;14.53;6.97;;;;;;;20.53;72.28;100337.63;5059783;28;20168;-58
2023/10/03 07:14:00;;;;;;;13.63;7.03;;;;;;;20.53;72.13;100331.88;5058316;28;20781;-58
2023/10/03 07:16:25;;;;;;;12.63;6.70;;;;;;;20.54;72.10;100333.56;5062405;28;20261;-58
2023/10/03 07:18:50;;;;;;;13.87;7.80;;;;;;;20.53;71.71;100337.63;5065157;28;20487;-58
2023/10/03 07:21:16;;;;;;;13.83;6.90;;;;;;;20.54;72.06;100339.28;5056791;28;20673;-58
2023/10/03 07:23:43;;;;;;;16.00;8.53;;;;;;;20.53;72.20;100340.50;5056723;28;20662;-58
2023/10/03 07:26:08;;;;;;;13.20;7.40;;;;;;;20.54;71.89;100347.06;5056375;28;20985;-58
2023/10/03 07:28:37;;;;;;;13.10;7.07;;;;;;;20.55;71.70;100354.44;5062376;28;20437;-58
2023/10/03 07:31:03;;;;;;;13.63;7.20;;;;;;;20.55;72.09;100351.56;5063201;28;20201;-58
2023/10/03 07:33:28;;;;;;;14.50;7.13;;;;;;;20.55;71.85;100345.84;5059472;28;20936;-57
2023/10/03 07:35:56;;;;;;;14.33;7.80;;;;;;;20.55;71.79;100352.41;5057548;28;20651;-58
2023/10/03 07:38:22;;;;;;;13.00;7.57;;;;;;;20.58;70.83;100343.00;5065738;28;20202;-67
2023/10/03 07:40:47;;;;;;;10.63;6.47;;;;;;;20.70;67.10;100345.59;5046749;28;20445;-58
2023/10/03 07:43:13;;;;;;;12.13;6.60;;;;;;;20.74;66.24;100342.75;5055097;28;20646;-58
2023/10/03 07:45:41;;;;;;;19.80;7.30;;;;;;;20.74;67.40;100343.59;5056602;28;20228;-57
2023/10/03 07:48:09;;;;;;;15.20;6.67;;;;;;;20.70;67.91;100345.59;5063479;28;20195;-58
2023/10/03 07:50:37;;;;;;;14.43;6.40;;;;;;;20.66;67.59;100359.09;5046449;28;20444;-58
2023/10/03 07:53:11;;;;;;;13.13;6.70;;;;;;;20.86;66.99;100348.19;5058752;28;20548;-59
2023/10/03 07:55:38;;;;;;;14.90;8.13;;;;;;;21.07;68.41;100346.38;5063576;28;20421;-58
2023/10/03 07:58:04;;;;;;;14.23;7.10;;;;;;;21.11;67.25;100343.53;5058201;28;20491;-58
2023/10/03 08:00:30;;;;;;;10.57;5.90;;;;;;;21.07;65.40;100346.38;5059967;28;21092;-58
2023/10/03 08:02:55;;;;;;;14.93;5.87;;;;;;;21.09;65.54;100349.69;5052215;28;20296;-58
2023/10/03 08:05:27;;;;;;;19.53;5.63;;;;;;;21.11;65.79;100352.16;5053588;28;20192;-58
2023/10/03 08:07:53;;;;;;;10.73;5.70;;;;;;;21.10;65.61;100347.63;5052203;28;20538;-59
2023/10/03 08:10:19;;;;;;;8.90;5.27;;;;;;;21.16;64.49;100358.34;5049941;28;20505;-59
2023/10/03 08:12:47;;;;;;;7.97;4.80;;;;;;;21.19;64.28;100357.56;5061672;28;20441;-59
2023/10/03 08:15:18;;;;;;;10.87;4.97;;;;;;;21.21;64.61;100358.00;5050077;28;20267;-58
2023/10/03 08:17:53;;;;;;;14.23;5.43;;;;;;;21.21;64.66;100346.50;5061056;28;20429;-58
2023/10/03 08:20:19;;;;;;;14.70;6.40;;;;;;;21.36;63.03;100342.53;5055794;28;20452;-58
2023/10/03 08:22:53;;;;;;;13.53;6.87;;;;;;;21.25;65.97;100350.22;5050786;28;20829;-59
2023/10/03 08:25:23;;;;;;;10.90;5.40;;;;;;;21.35;63.32;100351.53;5050567;28;20206;-59
2023/10/03 08:27:49;;;;;;;13.03;5.43;;;;;;;21.38;64.25;100348.69;5058939;28;20967;-58
2023/10/03 08:30:50;;;;;;;12.23;5.40;;;;;;;21.36;65.57;100356.03;5063142;28;20421;-59
2023/10/03 08:33:07;;;;;;;10.37;5.43;;;;;;;21.45;62.98;100350.78;5050518;28;20450;-59
2023/10/03 08:35:35;;;;;;;10.53;5.70;;;;;;;21.50;62.19;100354.13;5063350;28;20452;-60
2023/10/03 08:38:04;;;;;;;9.93;5.33;;;;;;;21.53;62.37;100361.91;5058662;28;20321;-59
2023/10/03 08:40:38;;;;;;;13.93;5.70;;;;;;;21.59;61.49;100351.72;5053705;28;20514;-58
2023/10/03 08:43:05;;;;;;;13.47;6.03;;;;;;;21.59;61.62;100345.13;5058770;28;20465;-58
2023/10/03 08:45:34;;;;;;;10.23;5.90;;;;;;;21.61;61.64;100360.75;5052501;28;20441;-59
2023/10/03 08:48:05;;;;;;;9.20;4.93;;;;;;;21.68;60.86;100352.19;5052126;28;20510;-58
2023/10/03 08:50:36;;;;;;;12.73;6.20;;;;;;;21.66;61.62;100362.41;5063096;28;20436;-59
2023/10/03 08:53:12;;;;;;;10.00;5.20;;;;;;;21.64;61.97;100359.13;5046601;28;20456;-59
2023/10/03 08:55:43;;;;;;;10.37;6.20;;;;;;;21.62;61.91;100350.91;5054649;28;20425;-58
2023/10/03 08:58:13;;;;;;;12.33;5.70;;;;;;;21.67;62.16;100352.59;5047063;28;21115;-59
2023/10/03 09:00:59;;;;;;;9.80;5.97;;;;;;;21.85;62.11;100365.03;5054564;28;21272;-59
2023/10/03 09:03:47;;;;;;;11.43;5.80;;;;;;;21.99;62.77;100354.44;5061181;28;20507;-59
2023/10/03 09:06:23;;;;;;;13.00;6.90;;;;;;;21.96;62.90;100360.16;5049561;28;21215;-58
2023/10/03 09:08:50;;;;;;;11.43;6.27;;;;;;;22.08;61.08;100363.50;5053514;28;20475;-58
2023/10/03 09:11:18;;;;;;;12.03;6.13;;;;;;;22.11;60.52;100359.84;5057907;28;20440;-59
2023/10/03 09:13:47;;;;;;;18.77;6.57;;;;;;;22.20;60.24;100360.28;5052229;28;20446;-58
2023/10/03 09:16:14;;;;;;;10.57;6.00;;;;;;;22.15;60.89;100363.56;5058534;28;20448;-59
2023/10/03 09:18:41;;;;;;;13.03;5.53;;;;;;;22.09;61.76;100362.31;5048633;28;20466;-59
2023/10/03 09:21:07;;;;;;;12.37;5.80;;;;;;;22.11;61.95;100377.09;5062041;28;20471;-58
2023/10/03 09:23:39;;;;;;;10.30;5.53;;;;;;;22.17;61.42;100368.91;5052127;28;20430;-59
2023/10/03 09:26:06;;;;;;;12.90;6.20;;;;;;;22.21;60.94;100367.69;5055653;28;20536;-59
2023/10/03 09:28:35;;;;;;;12.17;6.30;;;;;;;22.26;60.72;100363.59;5060227;28;20488;-59
2023/10/03 09:31:03;;;;;;;9.67;6.03;;;;;;;22.26;60.58;100360.72;5054743;28;20480;-58
2023/10/03 09:33:28;;;;;;;11.23;5.67;;;;;;;22.02;62.73;100350.75;5059865;28;20433;-58
2023/10/03 09:36:00;;;;;;;13.83;6.37;;;;;;;22.00;62.19;100361.00;5050654;28;20437;-58
2023/10/03 09:38:45;;;;;;;10.53;6.10;;;;;;;21.92;63.31;100353.59;5047329;28;20195;-58
2023/10/03 09:41:17;;;;;;;10.20;5.60;;;;;;;21.95;62.29;100370.84;5056702;28;20473;-58
2023/10/03 09:43:49;;;;;;;13.27;7.60;;;;;;;21.94;63.02;100366.34;5057945;28;20965;-58
2023/10/03 09:46:23;;;;;;;12.13;6.70;;;;;;;21.93;63.60;100366.72;5049177;28;21059;-58
2023/10/03 09:48:53;;;;;;;13.10;6.63;;;;;;;22.05;64.50;100361.47;5054022;28;21045;-58
2023/10/03 09:51:36;;;;;;;19.70;7.70;;;;;;;22.23;64.29;100370.97;5057679;28;20461;-58
2023/10/03 09:54:11;;;;;;;14.93;7.93;;;;;;;22.22;64.89;100362.78;5054732;28;21082;-58
2023/10/03 09:56:41;;;;;;;18.63;9.07;;;;;;;22.26;64.86;100372.22;5054492;28;20519;-58
2023/10/03 09:59:17;;;;;;;20.13;9.60;;;;;;;22.31;65.11;100368.94;5053292;28;20444;-58
2023/10/03 10:01:45;;;;;;;16.60;9.97;;;;;;;22.35;64.87;100366.91;5066408;28;20530;-58
2023/10/03 10:04:13;;;;;;;16.97;8.83;;;;;;;22.41;65.49;100376.78;5057113;28;20444;-58
2023/10/03 10:06:47;;;;;;;23.10;11.97;;;;;;;22.39;76.17;100379.25;5064246;28;20422;-58
2023/10/03 10:09:27;;;;;;;24.20;13.30;;;;;;;22.49;79.88;100381.38;5048424;28;20494;-57
2023/10/03 10:12:25;;;;;;;23.10;16.80;;;;;;;22.48;82.71;100376.88;5058971;28;20594;-58
2023/10/03 10:17:49;;;;;;;18.17;9.80;;;;;;;22.24;71.37;100389.91;5050419;28;20436;-58
2023/10/03 10:20:27;;;;;;;16.07;8.77;;;;;;;22.29;68.50;100386.63;5062464;28;20691;-58
2023/10/03 10:22:59;;;;;;;17.83;8.37;;;;;;;22.20;68.59;100371.81;5053346;28;21034;-58
2023/10/03 10:25:43;;;;;;;13.93;8.07;;;;;;;22.24;68.17;100380.44;5051273;28;20426;-59
2023/10/03 10:28:17;;;;;;;13.27;8.00;;;;;;;22.22;67.84;100380.03;5055198;28;20537;-58
2023/10/03 10:30:44;;;;;;;13.87;8.30;;;;;;;22.20;67.84;100391.09;5064004;28;20440;-58
2023/10/03 10:33:16;;;;;;;15.00;8.23;;;;;;;22.06;68.10;100388.97;5048030;28;20433;-58
2023/10/03 10:36:00;;;;;;;15.93;7.93;;;;;;;22.10;67.99;100389.81;5068565;28;21393;-58
2023/10/03 10:38:31;;;;;;;13.63;7.53;;;;;;;22.07;68.19;100387.75;5066832;28;20440;-58
2023/10/03 10:41:11;;;;;;;15.77;7.70;;;;;;;22.07;68.13;100386.94;5056002;28;20441;-57
2023/10/03 10:44:14;;;;;;;20.90;9.07;;;;;;;22.07;68.36;100396.38;5062103;28;20418;-58
2023/10/03 10:46:44;;;;;;;15.00;7.97;;;;;;;22.12;68.40;100387.38;5053685;28;20465;-58
2023/10/03 10:49:31;;;;;;;17.63;8.30;;;;;;;22.13;68.79;100386.13;5067075;28;20433;-58
2023/10/03 10:52:07;;;;;;;15.70;8.37;;;;;;;22.07;69.39;100382.00;5049676;28;20398;-58
2023/10/03 10:54:42;;;;;;;14.90;7.43;;;;;;;22.13;69.11;100379.56;5047760;28;20937;-58
2023/10/03 10:57:14;;;;;;;18.97;8.57;;;;;;;22.09;69.11;100388.19;5049620;28;20458;-58
2023/10/03 10:59:40;;;;;;;14.57;7.70;;;;;;;22.12;69.64;100387.38;5052696;28;20441;-58
2023/10/03 11:02:22;;;;;;;23.97;7.73;;;;;;;22.22;68.40;100388.66;5063776;28;20552;-58
2023/10/03 11:04:58;;;;;;;14.33;7.50;;;;;;;22.27;67.21;100386.19;5061720;28;20176;-58
2023/10/03 11:07:25;;;;;;;11.50;7.17;;;;;;;22.21;66.97;100393.56;5061258;28;20428;-58
2023/10/03 11:09:51;;;;;;;16.50;7.53;;;;;;;22.12;66.86;100392.31;5065992;28;20488;-58
2023/10/03 11:12:23;;;;;;;15.30;7.30;;;;;;;22.15;67.84;100398.06;5065401;28;20438;-59
2023/10/03 11:14:48;;;;;;;16.43;7.23;;;;;;;22.13;68.30;100393.94;5063422;28;20456;-58
2023/10/03 11:17:15;;;;;;;14.87;6.70;;;;;;;22.05;68.84;100389.38;5051921;28;20425;-57
2023/10/03 11:19:40;;;;;;;14.27;7.33;;;;;;;22.02;69.22;100396.75;5059349;28;20678;-59
2023/10/03 11:22:06;;;;;;;14.37;7.60;;;;;;;21.98;69.22;100390.16;5049709;28;20477;-58
2023/10/03 11:24:37;;;;;;;14.03;8.03;;;;;;;21.97;69.28;100404.97;5037279;28;20194;-58